sensor_id;sensor_type;location;lat;lon;timestamp;temperature;humidity
37560;DHT22;23398;50.928;7.084;2024-01-15T00:01:16;5.60;77.10
37560;DHT22;23398;50.928;7.084;2024-01-15T00:03:42;5.70;77.00
37560;DHT22;23398;50.928;7.084;2024-01-15T00:06:07;5.70;76.80
37560;DHT22;23398;50.928;7.084;2024-01-15T00:08:33;5.60;76.70
37560;DHT22;23398;50.928;7.084;2024-01-15T00:10:58;5.60;76.70
37560;DHT22;23398;50.928;7.084;2024-01-15T00:13:24;5.70;77.10
37560;DHT22;23398;50.928;7.084;2024-01-15T00:15:49;5.60;77.40
37560;DHT22;23398;50.928;7.084;2024-01-15T00:18:15;5.60;77.70
37560;DHT22;23398;50.928;7.084;2024-01-15T00:20:41;5.50;77.80
37560;DHT22;23398;50.928;7.084;2024-01-15T00:23:06;5.50;78.10
37560;DHT22;23398;50.928;7.084;2024-01-15T00:25:32;5.50;78.50
37560;DHT22;23398;50.928;7.084;2024-01-15T00:27:57;5.50;78.80
37560;DHT22;23398;50.928;7.084;2024-01-15T00:30:23;5.50;79.20
37560;DHT22;23398;50.928;7.084;2024-01-15T00:32:49;5.40;79.30
37560;DHT22;23398;50.928;7.084;2024-01-15T00:35:14;5.40;80.30
37560;DHT22;23398;50.928;7.084;2024-01-15T00:37:40;5.40;79.70
37560;DHT22;23398;50.928;7.084;2024-01-15T00:40:06;5.40;79.80
37560;DHT22;23398;50.928;7.084;2024-01-15T00:42:33;5.40;79.60
37560;DHT22;23398;50.928;7.084;2024-01-15T00:44:59;5.30;79.70
37560;DHT22;23398;50.928;7.084;2024-01-15T00:47:24;5.30;79.90
37560;DHT22;23398;50.928;7.084;2024-01-15T00:49:50;5.30;80.00
37560;DHT22;23398;50.928;7.084;2024-01-15T00:52:16;5.30;80.00
37560;DHT22;23398;50.928;7.084;2024-01-15T00:54:41;5.20;80.10
37560;DHT22;23398;50.928;7.084;2024-01-15T00:57:07;5.20;79.80
37560;DHT22;23398;50.928;7.084;2024-01-15T00:59:32;5.20;80.10
37560;DHT22;23398;50.928;7.084;2024-01-15T01:01:58;5.10;80.40
37560;DHT22;23398;50.928;7.084;2024-01-15T01:04:23;5.10;80.80
37560;DHT22;23398;50.928;7.084;2024-01-15T01:06:49;5.10;81.10
37560;DHT22;23398;50.928;7.084;2024-01-15T01:09:14;5.10;81.60
37560;DHT22;23398;50.928;7.084;2024-01-15T01:11:40;5.10;82.00
37560;DHT22;23398;50.928;7.084;2024-01-15T01:14:06;5.10;82.30
37560;DHT22;23398;50.928;7.084;2024-01-15T01:16:31;5.10;82.60
37560;DHT22;23398;50.928;7.084;2024-01-15T01:19:06;5.10;83.00
37560;DHT22;23398;50.928;7.084;2024-01-15T01:21:35;5.10;83.30
37560;DHT22;23398;50.928;7.084;2024-01-15T01:24:00;5.10;82.90
37560;DHT22;23398;50.928;7.084;2024-01-15T01:26:26;5.10;82.70
37560;DHT22;23398;50.928;7.084;2024-01-15T01:28:52;5.10;82.80
37560;DHT22;23398;50.928;7.084;2024-01-15T01:31:17;5.10;83.00
37560;DHT22;23398;50.928;7.084;2024-01-15T01:33:43;5.10;83.10
37560;DHT22;23398;50.928;7.084;2024-01-15T01:36:09;5.10;83.40
37560;DHT22;23398;50.928;7.084;2024-01-15T01:38:35;5.10;83.50
37560;DHT22;23398;50.928;7.084;2024-01-15T01:41:01;5.10;83.70
37560;DHT22;23398;50.928;7.084;2024-01-15T01:43:27;5.10;83.50
37560;DHT22;23398;50.928;7.084;2024-01-15T01:45:52;5.10;83.60
37560;DHT22;23398;50.928;7.084;2024-01-15T01:48:21;5.20;83.80
37560;DHT22;23398;50.928;7.084;2024-01-15T01:50:47;5.10;83.60
37560;DHT22;23398;50.928;7.084;2024-01-15T01:53:12;5.20;83.70
37560;DHT22;23398;50.928;7.084;2024-01-15T01:55:38;5.10;83.80
37560;DHT22;23398;50.928;7.084;2024-01-15T01:58:04;5.20;83.80
37560;DHT22;23398;50.928;7.084;2024-01-15T02:00:31;5.20;83.80
37560;DHT22;23398;50.928;7.084;2024-01-15T02:02:57;5.20;83.90
37560;DHT22;23398;50.928;7.084;2024-01-15T02:05:23;5.20;83.80
37560;DHT22;23398;50.928;7.084;2024-01-15T02:07:48;5.20;83.90
37560;DHT22;23398;50.928;7.084;2024-01-15T02:10:14;5.20;83.80
37560;DHT22;23398;50.928;7.084;2024-01-15T02:12:40;5.20;83.80
37560;DHT22;23398;50.928;7.084;2024-01-15T02:15:07;5.20;83.60
37560;DHT22;23398;50.928;7.084;2024-01-15T02:17:33;5.20;83.50
37560;DHT22;23398;50.928;7.084;2024-01-15T02:19:58;5.20;83.30
37560;DHT22;23398;50.928;7.084;2024-01-15T02:22:24;5.20;83.40
37560;DHT22;23398;50.928;7.084;2024-01-15T02:24:49;5.20;83.40
37560;DHT22;23398;50.928;7.084;2024-01-15T02:27:15;5.20;83.50
37560;DHT22;23398;50.928;7.084;2024-01-15T02:29:41;5.20;83.60
37560;DHT22;23398;50.928;7.084;2024-01-15T02:32:07;5.20;83.30
37560;DHT22;23398;50.928;7.084;2024-01-15T02:34:34;5.20;83.00
37560;DHT22;23398;50.928;7.084;2024-01-15T02:36:59;5.30;82.90
37560;DHT22;23398;50.928;7.084;2024-01-15T02:39:25;5.20;82.70
37560;DHT22;23398;50.928;7.084;2024-01-15T02:41:50;5.20;82.60
37560;DHT22;23398;50.928;7.084;2024-01-15T02:44:16;5.30;82.70
37560;DHT22;23398;50.928;7.084;2024-01-15T02:46:42;5.30;82.90
37560;DHT22;23398;50.928;7.084;2024-01-15T02:49:07;5.30;83.00
37560;DHT22;23398;50.928;7.084;2024-01-15T02:51:33;5.30;83.00
37560;DHT22;23398;50.928;7.084;2024-01-15T02:53:58;5.30;82.80
37560;DHT22;23398;50.928;7.084;2024-01-15T02:56:24;5.40;82.80
37560;DHT22;23398;50.928;7.084;2024-01-15T02:58:49;5.30;82.60
37560;DHT22;23398;50.928;7.084;2024-01-15T03:01:17;5.30;82.80
37560;DHT22;23398;50.928;7.084;2024-01-15T03:03:43;5.40;82.80
37560;DHT22;23398;50.928;7.084;2024-01-15T03:06:10;5.40;82.80
37560;DHT22;23398;50.928;7.084;2024-01-15T03:08:35;5.40;83.00
37560;DHT22;23398;50.928;7.084;2024-01-15T03:11:01;5.40;82.70
37560;DHT22;23398;50.928;7.084;2024-01-15T03:13:26;5.40;82.70
37560;DHT22;23398;50.928;7.084;2024-01-15T03:15:52;5.40;82.80
37560;DHT22;23398;50.928;7.084;2024-01-15T03:18:17;5.40;82.60
37560;DHT22;23398;50.928;7.084;2024-01-15T03:20:43;5.40;82.50
37560;DHT22;23398;50.928;7.084;2024-01-15T03:23:08;5.40;82.40
37560;DHT22;23398;50.928;7.084;2024-01-15T03:25:34;5.40;82.30
37560;DHT22;23398;50.928;7.084;2024-01-15T03:28:00;5.50;82.20
37560;DHT22;23398;50.928;7.084;2024-01-15T03:30:25;5.40;82.00
37560;DHT22;23398;50.928;7.084;2024-01-15T03:32:51;5.40;81.80
37560;DHT22;23398;50.928;7.084;2024-01-15T03:35:16;5.50;81.70
37560;DHT22;23398;50.928;7.084;2024-01-15T03:37:42;5.50;81.60
37560;DHT22;23398;50.928;7.084;2024-01-15T03:40:08;5.50;81.40
37560;DHT22;23398;50.928;7.084;2024-01-15T03:42:33;5.50;81.30
37560;DHT22;23398;50.928;7.084;2024-01-15T03:44:59;5.40;81.00
37560;DHT22;23398;50.928;7.084;2024-01-15T03:47:25;5.50;81.10
37560;DHT22;23398;50.928;7.084;2024-01-15T03:49:51;5.40;80.90
37560;DHT22;23398;50.928;7.084;2024-01-15T03:52:16;5.40;81.00
37560;DHT22;23398;50.928;7.084;2024-01-15T03:54:42;5.40;80.90
37560;DHT22;23398;50.928;7.084;2024-01-15T03:57:08;5.40;81.00
37560;DHT22;23398;50.928;7.084;2024-01-15T03:59:33;5.40;81.20
37560;DHT22;23398;50.928;7.084;2024-01-15T04:01:59;5.40;81.30
37560;DHT22;23398;50.928;7.084;2024-01-15T04:04:24;5.40;81.00
37560;DHT22;23398;50.928;7.084;2024-01-15T04:06:50;5.40;81.20
37560;DHT22;23398;50.928;7.084;2024-01-15T04:09:16;5.40;81.40
37560;DHT22;23398;50.928;7.084;2024-01-15T04:11:41;5.40;81.40
37560;DHT22;23398;50.928;7.084;2024-01-15T04:14:07;5.40;81.50
37560;DHT22;23398;50.928;7.084;2024-01-15T04:16:32;5.40;81.70
37560;DHT22;23398;50.928;7.084;2024-01-15T04:18:58;5.40;81.70
37560;DHT22;23398;50.928;7.084;2024-01-15T04:21:23;5.40;81.60
37560;DHT22;23398;50.928;7.084;2024-01-15T04:23:49;5.40;81.70
37560;DHT22;23398;50.928;7.084;2024-01-15T04:26:15;5.40;81.50
37560;DHT22;23398;50.928;7.084;2024-01-15T04:28:40;5.40;81.50
37560;DHT22;23398;50.928;7.084;2024-01-15T04:31:06;5.50;81.50
37560;DHT22;23398;50.928;7.084;2024-01-15T04:33:31;5.50;81.40
37560;DHT22;23398;50.928;7.084;2024-01-15T04:36:01;5.50;81.20
37560;DHT22;23398;50.928;7.084;2024-01-15T04:38:27;5.50;81.30
37560;DHT22;23398;50.928;7.084;2024-01-15T04:40:52;5.50;81.20
37560;DHT22;23398;50.928;7.084;2024-01-15T04:43:18;5.50;81.30
37560;DHT22;23398;50.928;7.084;2024-01-15T04:45:44;5.50;81.40
37560;DHT22;23398;50.928;7.084;2024-01-15T04:48:09;5.50;81.30
37560;DHT22;23398;50.928;7.084;2024-01-15T04:50:35;5.50;81.40
37560;DHT22;23398;50.928;7.084;2024-01-15T04:53:00;5.50;81.60
37560;DHT22;23398;50.928;7.084;2024-01-15T04:55:26;5.60;81.80
37560;DHT22;23398;50.928;7.084;2024-01-15T04:57:51;5.60;82.00
37560;DHT22;23398;50.928;7.084;2024-01-15T05:00:17;5.60;82.00
37560;DHT22;23398;50.928;7.084;2024-01-15T05:02:43;5.60;82.00
37560;DHT22;23398;50.928;7.084;2024-01-15T05:05:08;5.60;82.00
37560;DHT22;23398;50.928;7.084;2024-01-15T05:07:34;5.70;82.00
37560;DHT22;23398;50.928;7.084;2024-01-15T05:10:00;5.70;81.80
37560;DHT22;23398;50.928;7.084;2024-01-15T05:12:25;5.70;81.70
37560;DHT22;23398;50.928;7.084;2024-01-15T05:14:51;5.70;81.60
37560;DHT22;23398;50.928;7.084;2024-01-15T05:17:16;5.80;81.60
37560;DHT22;23398;50.928;7.084;2024-01-15T05:19:42;5.80;81.60
37560;DHT22;23398;50.928;7.084;2024-01-15T05:22:07;5.90;81.70
37560;DHT22;23398;50.928;7.084;2024-01-15T05:24:33;5.80;81.40
37560;DHT22;23398;50.928;7.084;2024-01-15T05:26:58;5.90;81.50
37560;DHT22;23398;50.928;7.084;2024-01-15T05:29:24;6.00;81.50
37560;DHT22;23398;50.928;7.084;2024-01-15T05:31:50;5.90;81.20
37560;DHT22;23398;50.928;7.084;2024-01-15T05:34:15;5.90;81.00
37560;DHT22;23398;50.928;7.084;2024-01-15T05:36:41;5.90;80.80
37560;DHT22;23398;50.928;7.084;2024-01-15T05:39:06;6.00;80.80
37560;DHT22;23398;50.928;7.084;2024-01-15T05:41:32;6.00;80.60
37560;DHT22;23398;50.928;7.084;2024-01-15T05:43:58;6.00;80.50
37560;DHT22;23398;50.928;7.084;2024-01-15T05:46:23;6.00;80.50
37560;DHT22;23398;50.928;7.084;2024-01-15T05:48:49;6.00;80.50
37560;DHT22;23398;50.928;7.084;2024-01-15T05:51:15;6.00;81.20
37560;DHT22;23398;50.928;7.084;2024-01-15T05:53:40;6.00;80.40
37560;DHT22;23398;50.928;7.084;2024-01-15T05:56:08;6.10;80.40
37560;DHT22;23398;50.928;7.084;2024-01-15T05:58:33;6.10;80.30
37560;DHT22;23398;50.928;7.084;2024-01-15T06:00:59;6.10;80.30
37560;DHT22;23398;50.928;7.084;2024-01-15T06:03:24;6.10;80.30
37560;DHT22;23398;50.928;7.084;2024-01-15T06:05:50;6.10;80.20
37560;DHT22;23398;50.928;7.084;2024-01-15T06:08:16;6.10;80.20
37560;DHT22;23398;50.928;7.084;2024-01-15T06:10:41;6.10;80.20
37560;DHT22;23398;50.928;7.084;2024-01-15T06:13:07;6.10;80.30
37560;DHT22;23398;50.928;7.084;2024-01-15T06:15:32;6.10;80.30
37560;DHT22;23398;50.928;7.084;2024-01-15T06:17:58;6.10;80.40
37560;DHT22;23398;50.928;7.084;2024-01-15T06:20:23;6.10;80.40
37560;DHT22;23398;50.928;7.084;2024-01-15T06:22:49;6.10;80.40
37560;DHT22;23398;50.928;7.084;2024-01-15T06:25:14;6.10;80.30
37560;DHT22;23398;50.928;7.084;2024-01-15T06:27:40;6.10;80.40
37560;DHT22;23398;50.928;7.084;2024-01-15T06:30:06;6.10;80.30
37560;DHT22;23398;50.928;7.084;2024-01-15T06:32:32;6.10;80.30
37560;DHT22;23398;50.928;7.084;2024-01-15T06:34:57;6.10;80.30
37560;DHT22;23398;50.928;7.084;2024-01-15T06:37:23;6.10;80.30
37560;DHT22;23398;50.928;7.084;2024-01-15T06:39:48;6.10;80.50
37560;DHT22;23398;50.928;7.084;2024-01-15T06:42:14;6.10;80.50
37560;DHT22;23398;50.928;7.084;2024-01-15T06:44:39;6.10;80.50
37560;DHT22;23398;50.928;7.084;2024-01-15T06:47:05;6.10;80.50
37560;DHT22;23398;50.928;7.084;2024-01-15T06:49:31;6.20;80.40
37560;DHT22;23398;50.928;7.084;2024-01-15T06:51:56;6.10;80.10
37560;DHT22;23398;50.928;7.084;2024-01-15T06:54:22;6.20;80.10
37560;DHT22;23398;50.928;7.084;2024-01-15T06:56:49;6.10;80.00
37560;DHT22;23398;50.928;7.084;2024-01-15T06:59:14;6.20;80.00
37560;DHT22;23398;50.928;7.084;2024-01-15T07:01:40;6.20;80.10
37560;DHT22;23398;50.928;7.084;2024-01-15T07:04:05;6.10;80.00
37560;DHT22;23398;50.928;7.084;2024-01-15T07:06:31;6.20;80.10
37560;DHT22;23398;50.928;7.084;2024-01-15T07:08:57;6.10;80.10
37560;DHT22;23398;50.928;7.084;2024-01-15T07:11:23;6.20;80.40
37560;DHT22;23398;50.928;7.084;2024-01-15T07:13:49;6.10;80.50
37560;DHT22;23398;50.928;7.084;2024-01-15T07:16:14;6.10;80.50
37560;DHT22;23398;50.928;7.084;2024-01-15T07:18:40;6.20;80.60
37560;DHT22;23398;50.928;7.084;2024-01-15T07:21:06;6.20;80.60
37560;DHT22;23398;50.928;7.084;2024-01-15T07:23:32;6.20;80.80
37560;DHT22;23398;50.928;7.084;2024-01-15T07:25:57;6.20;80.70
37560;DHT22;23398;50.928;7.084;2024-01-15T07:28:23;6.20;80.70
37560;DHT22;23398;50.928;7.084;2024-01-15T07:30:48;6.20;80.70
37560;DHT22;23398;50.928;7.084;2024-01-15T07:33:14;6.20;80.70
37560;DHT22;23398;50.928;7.084;2024-01-15T07:35:40;6.20;80.70
37560;DHT22;23398;50.928;7.084;2024-01-15T07:38:05;6.20;80.70
37560;DHT22;23398;50.928;7.084;2024-01-15T07:40:31;6.20;80.70
37560;DHT22;23398;50.928;7.084;2024-01-15T07:42:56;6.20;80.60
37560;DHT22;23398;50.928;7.084;2024-01-15T07:45:22;6.20;80.70
37560;DHT22;23398;50.928;7.084;2024-01-15T07:47:47;6.20;80.70
37560;DHT22;23398;50.928;7.084;2024-01-15T07:50:13;6.20;80.70
37560;DHT22;23398;50.928;7.084;2024-01-15T07:52:40;6.20;80.70
37560;DHT22;23398;50.928;7.084;2024-01-15T07:55:07;6.20;80.80
37560;DHT22;23398;50.928;7.084;2024-01-15T07:57:33;6.30;80.90
37560;DHT22;23398;50.928;7.084;2024-01-15T07:59:59;6.20;80.80
37560;DHT22;23398;50.928;7.084;2024-01-15T08:02:24;6.30;80.90
37560;DHT22;23398;50.928;7.084;2024-01-15T08:04:50;6.30;80.90
37560;DHT22;23398;50.928;7.084;2024-01-15T08:07:16;6.30;80.90
37560;DHT22;23398;50.928;7.084;2024-01-15T08:09:41;6.30;80.90
37560;DHT22;23398;50.928;7.084;2024-01-15T08:12:07;6.30;80.80
37560;DHT22;23398;50.928;7.084;2024-01-15T08:14:33;6.30;80.70
37560;DHT22;23398;50.928;7.084;2024-01-15T08:16:58;6.40;80.60
37560;DHT22;23398;50.928;7.084;2024-01-15T08:19:24;6.40;81.10
37560;DHT22;23398;50.928;7.084;2024-01-15T08:21:50;6.40;80.60
37560;DHT22;23398;50.928;7.084;2024-01-15T08:24:15;6.40;80.60
37560;DHT22;23398;50.928;7.084;2024-01-15T08:26:42;6.40;80.60
37560;DHT22;23398;50.928;7.084;2024-01-15T08:29:07;6.50;80.60
37560;DHT22;23398;50.928;7.084;2024-01-15T08:31:33;6.50;80.40
37560;DHT22;23398;50.928;7.084;2024-01-15T08:33:59;6.50;80.30
37560;DHT22;23398;50.928;7.084;2024-01-15T08:36:25;6.50;80.10
37560;DHT22;23398;50.928;7.084;2024-01-15T08:38:50;6.60;80.20
37560;DHT22;23398;50.928;7.084;2024-01-15T08:41:16;6.60;79.90
37560;DHT22;23398;50.928;7.084;2024-01-15T08:43:42;6.60;80.40
37560;DHT22;23398;50.928;7.084;2024-01-15T08:46:07;6.60;79.40
37560;DHT22;23398;50.928;7.084;2024-01-15T08:48:33;6.70;79.30
37560;DHT22;23398;50.928;7.084;2024-01-15T08:50:58;6.70;79.10
37560;DHT22;23398;50.928;7.084;2024-01-15T08:53:24;6.70;78.90
37560;DHT22;23398;50.928;7.084;2024-01-15T08:55:49;6.70;79.60
37560;DHT22;23398;50.928;7.084;2024-01-15T08:58:15;6.80;78.80
37560;DHT22;23398;50.928;7.084;2024-01-15T09:00:41;6.70;78.80
37560;DHT22;23398;50.928;7.084;2024-01-15T09:03:07;6.80;78.80
37560;DHT22;23398;50.928;7.084;2024-01-15T09:05:34;6.80;78.60
37560;DHT22;23398;50.928;7.084;2024-01-15T09:07:59;6.80;78.30
37560;DHT22;23398;50.928;7.084;2024-01-15T09:10:25;6.80;78.20
37560;DHT22;23398;50.928;7.084;2024-01-15T09:12:50;6.80;78.00
37560;DHT22;23398;50.928;7.084;2024-01-15T09:15:16;6.90;77.90
37560;DHT22;23398;50.928;7.084;2024-01-15T09:17:42;6.80;77.60
37560;DHT22;23398;50.928;7.084;2024-01-15T09:20:08;6.90;77.60
37560;DHT22;23398;50.928;7.084;2024-01-15T09:22:35;6.90;77.40
37560;DHT22;23398;50.928;7.084;2024-01-15T09:25:01;6.90;77.30
37560;DHT22;23398;50.928;7.084;2024-01-15T09:27:26;6.90;77.30
37560;DHT22;23398;50.928;7.084;2024-01-15T09:29:52;6.90;77.40
37560;DHT22;23398;50.928;7.084;2024-01-15T09:32:18;6.80;78.00
37560;DHT22;23398;50.928;7.084;2024-01-15T09:34:45;6.80;77.10
37560;DHT22;23398;50.928;7.084;2024-01-15T09:37:11;6.80;77.10
37560;DHT22;23398;50.928;7.084;2024-01-15T09:39:37;6.80;77.40
37560;DHT22;23398;50.928;7.084;2024-01-15T09:42:03;6.70;77.60
37560;DHT22;23398;50.928;7.084;2024-01-15T09:44:29;6.70;77.90
37560;DHT22;23398;50.928;7.084;2024-01-15T09:46:56;6.70;78.40
37560;DHT22;23398;50.928;7.084;2024-01-15T09:49:22;6.60;78.60
37560;DHT22;23398;50.928;7.084;2024-01-15T09:51:48;6.60;79.00
37560;DHT22;23398;50.928;7.084;2024-01-15T09:54:14;6.60;79.30
37560;DHT22;23398;50.928;7.084;2024-01-15T09:56:45;6.50;79.60
37560;DHT22;23398;50.928;7.084;2024-01-15T09:59:13;6.50;80.00
37560;DHT22;23398;50.928;7.084;2024-01-15T10:01:40;6.50;79.90
37560;DHT22;23398;50.928;7.084;2024-01-15T10:04:06;6.40;80.20
37560;DHT22;23398;50.928;7.084;2024-01-15T10:06:32;6.40;80.20
37560;DHT22;23398;50.928;7.084;2024-01-15T10:08:59;6.40;80.20
37560;DHT22;23398;50.928;7.084;2024-01-15T10:11:25;6.40;80.30
37560;DHT22;23398;50.928;7.084;2024-01-15T10:13:50;6.30;80.20
37560;DHT22;23398;50.928;7.084;2024-01-15T10:16:19;6.30;80.30
37560;DHT22;23398;50.928;7.084;2024-01-15T10:18:44;6.20;80.00
37560;DHT22;23398;50.928;7.084;2024-01-15T10:21:10;6.20;80.20
37560;DHT22;23398;50.928;7.084;2024-01-15T10:23:35;6.20;80.40
37560;DHT22;23398;50.928;7.084;2024-01-15T10:26:02;6.20;81.40
37560;DHT22;23398;50.928;7.084;2024-01-15T10:28:28;6.10;81.50
37560;DHT22;23398;50.928;7.084;2024-01-15T10:30:57;6.10;82.00
37560;DHT22;23398;50.928;7.084;2024-01-15T10:33:25;6.10;82.80
37560;DHT22;23398;50.928;7.084;2024-01-15T10:35:55;6.10;83.10
37560;DHT22;23398;50.928;7.084;2024-01-15T10:38:22;6.10;83.10
37560;DHT22;23398;50.928;7.084;2024-01-15T10:40:52;6.10;82.50
37560;DHT22;23398;50.928;7.084;2024-01-15T10:43:17;6.10;82.70
37560;DHT22;23398;50.928;7.084;2024-01-15T10:45:46;6.10;82.70
37560;DHT22;23398;50.928;7.084;2024-01-15T10:48:13;6.10;82.80
37560;DHT22;23398;50.928;7.084;2024-01-15T10:50:39;6.10;82.60
37560;DHT22;23398;50.928;7.084;2024-01-15T10:53:04;6.10;83.30
37560;DHT22;23398;50.928;7.084;2024-01-15T10:55:31;6.10;83.90
37560;DHT22;23398;50.928;7.084;2024-01-15T10:57:59;6.00;84.40
37560;DHT22;23398;50.928;7.084;2024-01-15T11:00:25;6.10;85.10
37560;DHT22;23398;50.928;7.084;2024-01-15T11:02:51;6.10;84.70
37560;DHT22;23398;50.928;7.084;2024-01-15T11:05:21;6.10;84.20
37560;DHT22;23398;50.928;7.084;2024-01-15T11:07:48;6.10;84.00
37560;DHT22;23398;50.928;7.084;2024-01-15T11:10:46;6.10;83.10
37560;DHT22;23398;50.928;7.084;2024-01-15T11:13:21;6.10;83.90
37560;DHT22;23398;50.928;7.084;2024-01-15T11:16:01;6.00;84.40
37560;DHT22;23398;50.928;7.084;2024-01-15T11:18:31;6.00;85.40
37560;DHT22;23398;50.928;7.084;2024-01-15T11:28:58;6.30;87.30
37560;DHT22;23398;50.928;7.084;2024-01-15T11:34:11;6.20;88.10
37560;DHT22;23398;50.928;7.084;2024-01-15T11:41:57;6.30;89.80
37560;DHT22;23398;50.928;7.084;2024-01-15T11:44:23;6.40;89.50
37560;DHT22;23398;50.928;7.084;2024-01-15T11:46:59;6.40;88.30
37560;DHT22;23398;50.928;7.084;2024-01-15T11:50:03;6.50;88.70
37560;DHT22;23398;50.928;7.084;2024-01-15T11:52:36;6.50;88.60
37560;DHT22;23398;50.928;7.084;2024-01-15T11:55:30;6.60;87.70
37560;DHT22;23398;50.928;7.084;2024-01-15T11:58:00;6.60;86.90
37560;DHT22;23398;50.928;7.084;2024-01-15T12:00:26;6.60;86.00
37560;DHT22;23398;50.928;7.084;2024-01-15T12:02:52;6.60;85.80
37560;DHT22;23398;50.928;7.084;2024-01-15T12:05:19;6.60;85.50
37560;DHT22;23398;50.928;7.084;2024-01-15T12:07:47;6.60;85.20
37560;DHT22;23398;50.928;7.084;2024-01-15T12:10:15;6.60;85.10
37560;DHT22;23398;50.928;7.084;2024-01-15T12:15:17;6.60;85.10
37560;DHT22;23398;50.928;7.084;2024-01-15T12:17:43;6.60;84.70
37560;DHT22;23398;50.928;7.084;2024-01-15T12:20:11;6.70;84.60
37560;DHT22;23398;50.928;7.084;2024-01-15T12:22:37;6.70;84.60
37560;DHT22;23398;50.928;7.084;2024-01-15T12:25:04;6.70;84.80
37560;DHT22;23398;50.928;7.084;2024-01-15T12:27:30;6.70;84.20
37560;DHT22;23398;50.928;7.084;2024-01-15T12:29:55;6.70;83.90
37560;DHT22;23398;50.928;7.084;2024-01-15T12:32:21;6.70;84.10
37560;DHT22;23398;50.928;7.084;2024-01-15T12:34:49;6.80;84.50
37560;DHT22;23398;50.928;7.084;2024-01-15T12:37:17;6.80;84.90
37560;DHT22;23398;50.928;7.084;2024-01-15T12:39:43;6.90;85.50
37560;DHT22;23398;50.928;7.084;2024-01-15T12:42:09;6.90;85.20
37560;DHT22;23398;50.928;7.084;2024-01-15T12:44:35;7.00;85.00
37560;DHT22;23398;50.928;7.084;2024-01-15T12:47:04;7.10;84.60
37560;DHT22;23398;50.928;7.084;2024-01-15T12:49:30;7.20;83.90
37560;DHT22;23398;50.928;7.084;2024-01-15T12:51:59;7.30;82.90
37560;DHT22;23398;50.928;7.084;2024-01-15T12:54:26;7.30;82.20
37560;DHT22;23398;50.928;7.084;2024-01-15T12:56:51;7.40;81.60
37560;DHT22;23398;50.928;7.084;2024-01-15T12:59:18;7.40;80.50
37560;DHT22;23398;50.928;7.084;2024-01-15T13:01:44;7.40;79.70
37560;DHT22;23398;50.928;7.084;2024-01-15T13:04:10;7.50;79.30
37560;DHT22;23398;50.928;7.084;2024-01-15T13:06:36;7.80;79.30
37560;DHT22;23398;50.928;7.084;2024-01-15T13:09:03;7.40;78.70
37560;DHT22;23398;50.928;7.084;2024-01-15T13:11:32;7.40;78.60
37560;DHT22;23398;50.928;7.084;2024-01-15T13:13:57;7.40;78.40
37560;DHT22;23398;50.928;7.084;2024-01-15T13:16:23;7.40;78.30
37560;DHT22;23398;50.928;7.084;2024-01-15T13:18:48;7.40;78.30
37560;DHT22;23398;50.928;7.084;2024-01-15T13:21:15;7.30;78.10
37560;DHT22;23398;50.928;7.084;2024-01-15T13:23:41;7.30;77.90
37560;DHT22;23398;50.928;7.084;2024-01-15T13:26:06;7.30;77.80
37560;DHT22;23398;50.928;7.084;2024-01-15T13:28:32;7.10;76.90
37560;DHT22;23398;50.928;7.084;2024-01-15T13:30:59;7.10;78.00
37560;DHT22;23398;50.928;7.084;2024-01-15T13:33:25;7.20;78.10
37560;DHT22;23398;50.928;7.084;2024-01-15T13:35:50;7.20;78.00
37560;DHT22;23398;50.928;7.084;2024-01-15T13:38:16;7.20;78.00
37560;DHT22;23398;50.928;7.084;2024-01-15T13:40:42;7.20;77.60
37560;DHT22;23398;50.928;7.084;2024-01-15T13:43:10;7.20;77.40
37560;DHT22;23398;50.928;7.084;2024-01-15T13:45:36;7.20;77.20
37560;DHT22;23398;50.928;7.084;2024-01-15T13:48:03;7.20;77.20
37560;DHT22;23398;50.928;7.084;2024-01-15T13:50:31;7.20;77.10
37560;DHT22;23398;50.928;7.084;2024-01-15T13:52:57;7.20;77.20
37560;DHT22;23398;50.928;7.084;2024-01-15T13:55:23;7.10;77.50
37560;DHT22;23398;50.928;7.084;2024-01-15T13:57:48;7.10;77.80
37560;DHT22;23398;50.928;7.084;2024-01-15T14:00:14;7.10;78.00
37560;DHT22;23398;50.928;7.084;2024-01-15T14:02:44;7.20;77.80
37560;DHT22;23398;50.928;7.084;2024-01-15T14:05:09;7.10;77.60
37560;DHT22;23398;50.928;7.084;2024-01-15T14:07:38;7.20;77.70
37560;DHT22;23398;50.928;7.084;2024-01-15T14:10:05;7.10;77.60
37560;DHT22;23398;50.928;7.084;2024-01-15T14:12:31;7.10;77.70
37560;DHT22;23398;50.928;7.084;2024-01-15T14:14:57;7.10;77.60
37560;DHT22;23398;50.928;7.084;2024-01-15T14:17:22;7.10;77.20
37560;DHT22;23398;50.928;7.084;2024-01-15T14:19:48;7.10;77.00
37560;DHT22;23398;50.928;7.084;2024-01-15T14:22:13;7.10;76.80
37560;DHT22;23398;50.928;7.084;2024-01-15T14:24:39;7.10;76.70
37560;DHT22;23398;50.928;7.084;2024-01-15T14:27:04;7.10;76.60
37560;DHT22;23398;50.928;7.084;2024-01-15T14:29:32;7.00;76.60
37560;DHT22;23398;50.928;7.084;2024-01-15T14:31:58;6.90;76.90
37560;DHT22;23398;50.928;7.084;2024-01-15T14:34:25;6.90;77.40
37560;DHT22;23398;50.928;7.084;2024-01-15T14:36:51;6.80;77.60
37560;DHT22;23398;50.928;7.084;2024-01-15T14:39:19;6.80;77.60
37560;DHT22;23398;50.928;7.084;2024-01-15T14:41:45;6.70;77.70
37560;DHT22;23398;50.928;7.084;2024-01-15T14:44:12;6.70;77.70
37560;DHT22;23398;50.928;7.084;2024-01-15T14:46:38;6.70;77.70
37560;DHT22;23398;50.928;7.084;2024-01-15T14:49:03;6.60;77.90
37560;DHT22;23398;50.928;7.084;2024-01-15T14:51:29;6.60;78.30
37560;DHT22;23398;50.928;7.084;2024-01-15T14:53:54;6.60;78.40
37560;DHT22;23398;50.928;7.084;2024-01-15T14:56:20;6.60;78.50
37560;DHT22;23398;50.928;7.084;2024-01-15T14:58:46;6.50;78.30
37560;DHT22;23398;50.928;7.084;2024-01-15T15:01:15;6.50;78.50
37560;DHT22;23398;50.928;7.084;2024-01-15T15:03:41;6.50;78.70
37560;DHT22;23398;50.928;7.084;2024-01-15T15:06:07;6.50;78.50
37560;DHT22;23398;50.928;7.084;2024-01-15T15:08:33;6.50;78.50
37560;DHT22;23398;50.928;7.084;2024-01-15T15:10:59;6.50;78.50
37560;DHT22;23398;50.928;7.084;2024-01-15T15:13:25;6.50;78.30
37560;DHT22;23398;50.928;7.084;2024-01-15T15:15:51;6.50;78.10
37560;DHT22;23398;50.928;7.084;2024-01-15T15:18:19;6.50;78.10
37560;DHT22;23398;50.928;7.084;2024-01-15T15:20:45;6.40;77.90
37560;DHT22;23398;50.928;7.084;2024-01-15T15:23:10;6.40;78.10
37560;DHT22;23398;50.928;7.084;2024-01-15T15:25:36;6.40;78.10
37560;DHT22;23398;50.928;7.084;2024-01-15T15:28:02;6.40;78.00
37560;DHT22;23398;50.928;7.084;2024-01-15T15:30:30;6.30;78.00
37560;DHT22;23398;50.928;7.084;2024-01-15T15:32:56;6.30;78.10
37560;DHT22;23398;50.928;7.084;2024-01-15T15:35:21;6.30;78.00
37560;DHT22;23398;50.928;7.084;2024-01-15T15:37:47;6.30;78.30
37560;DHT22;23398;50.928;7.084;2024-01-15T15:40:12;6.30;78.50
37560;DHT22;23398;50.928;7.084;2024-01-15T15:42:38;6.20;78.70
37560;DHT22;23398;50.928;7.084;2024-01-15T15:45:04;6.30;78.80
37560;DHT22;23398;50.928;7.084;2024-01-15T15:47:30;6.20;78.80
37560;DHT22;23398;50.928;7.084;2024-01-15T15:49:56;6.20;79.50
37560;DHT22;23398;50.928;7.084;2024-01-15T15:52:22;6.20;78.90
37560;DHT22;23398;50.928;7.084;2024-01-15T15:54:47;6.20;79.00
37560;DHT22;23398;50.928;7.084;2024-01-15T15:57:13;6.20;78.60